Terminal Aerodrome Forecast
Issued by NWS

Home | Current Version | Previous Version | Text Only | Print | Product List | Glossary On
Versions: 1 2 3 4 5 6 7 8 9 10 11 12
000
FTUS46 KPDT 291700
TAFRDM
TAF
KRDM 291720Z 2918/3018 VRB05KT P6SM FEW150
     FM292000 33007KT P6SM FEW120 SCT200
     FM292200 33011KT P6SM VCTS SCT120CB SCT200
     FM300500 33007KT P6SM FEW120 SCT200
     FM300800 VRB04KT P6SM FEW200=

USA.gov is the U.S. government's official web portal to all federal, state and local government web resources and services.